Time;durP1;ratioP1;P1;durP2;ratioP2;P2;SDS_P1;SDS_P2;PMS_P1;PMS_P2;Temp;Humidity;BMP_temperature;BMP_pressure;BME280_temperature;BME280_humidity;BME280_pressure;Samples;Min_cycle;Max_cycle;Signal;HPM_P1;HPM_P2
2022/07/25 00:00:08;;;;;;;10.03;9.23;;;;;;;;;;5056051;28;20414;-70
2022/07/25 00:02:34;;;;;;;10.80;9.80;;;;;;;;;;5055960;28;20778;-69
2022/07/25 00:05:00;;;;;;;10.13;9.43;;;;;;;;;;5055967;28;20397;-70
2022/07/25 00:07:27;;;;;;;10.27;9.40;;;;;;;;;;5056176;28;20408;-70
2022/07/25 00:09:53;;;;;;;10.93;9.83;;;;;;;;;;5055857;28;20416;-70
2022/07/25 00:12:19;;;;;;;10.57;9.87;;;;;;;;;;5055737;28;20415;-69
2022/07/25 00:14:45;;;;;;;11.83;10.63;;;;;;;;;;5055652;28;20473;-69
2022/07/25 00:17:11;;;;;;;10.77;9.87;;;;;;;;;;5054380;28;20484;-70
2022/07/25 00:19:37;;;;;;;10.40;9.67;;;;;;;;;;5055703;28;20414;-69
2022/07/25 00:22:03;;;;;;;10.10;9.50;;;;;;;;;;5055849;28;20417;-69
2022/07/25 00:24:29;;;;;;;11.10;10.30;;;;;;;;;;5055556;28;20422;-68
2022/07/25 00:26:55;;;;;;;10.90;9.87;;;;;;;;;;5055595;28;20934;-70
2022/07/25 00:29:21;;;;;;;11.97;10.00;;;;;;;;;;5054202;28;20427;-69
2022/07/25 00:31:47;;;;;;;9.70;9.10;;;;;;;;;;5055519;28;20418;-69
2022/07/25 00:34:13;;;;;;;10.90;10.10;;;;;;;;;;5055395;28;20744;-68
2022/07/25 00:36:39;;;;;;;10.60;9.60;;;;;;;;;;5055338;28;20485;-68
2022/07/25 00:39:05;;;;;;;10.60;9.80;;;;;;;;;;5055306;28;20410;-69
2022/07/25 00:41:31;;;;;;;9.60;8.90;;;;;;;;;;5055337;28;20444;-69
2022/07/25 00:43:58;;;;;;;10.00;9.40;;;;;;;;;;5054000;28;20475;-69
2022/07/25 00:46:23;;;;;;;11.60;10.37;;;;;;;;;;5055280;28;20442;-69
2022/07/25 00:48:50;;;;;;;10.17;9.47;;;;;;;;;;5055213;28;20483;-70
2022/07/25 00:51:16;;;;;;;10.67;9.97;;;;;;;;;;5055172;28;20503;-70
2022/07/25 00:53:42;;;;;;;12.03;11.00;;;;;;;;;;5055079;28;20409;-69
2022/07/25 00:56:08;;;;;;;11.00;10.03;;;;;;;;;;5054991;28;20889;-68
2022/07/25 00:58:34;;;;;;;11.30;10.30;;;;;;;;;;5054921;28;20963;-69
2022/07/25 01:01:01;;;;;;;11.00;10.13;;;;;;;;;;5054967;28;20829;-69
2022/07/25 01:03:27;;;;;;;10.53;9.83;;;;;;;;;;5054891;28;20448;-69
2022/07/25 01:05:53;;;;;;;10.97;10.23;;;;;;;;;;5054844;28;20428;-68
2022/07/25 01:08:20;;;;;;;9.87;9.17;;;;;;;;;;5053265;28;20425;-68
2022/07/25 01:10:46;;;;;;;11.03;10.13;;;;;;;;;;5054650;28;20903;-69
2022/07/25 01:13:13;;;;;;;11.93;10.80;;;;;;;;;;5054682;28;20408;-69
2022/07/25 01:15:39;;;;;;;10.60;9.83;;;;;;;;;;5054465;28;20470;-68
2022/07/25 01:18:05;;;;;;;11.00;10.10;;;;;;;;;;5054512;28;20469;-67
2022/07/25 01:20:32;;;;;;;11.47;10.10;;;;;;;;;;5054538;28;20485;-69
2022/07/25 01:22:58;;;;;;;12.37;11.37;;;;;;;;;;5053277;28;20430;-68
2022/07/25 01:25:24;;;;;;;11.10;10.40;;;;;;;;;;5054403;28;20418;-68
2022/07/25 01:27:52;;;;;;;11.87;10.87;;;;;;;;;;5054399;28;20951;-69
2022/07/25 01:30:18;;;;;;;11.07;10.07;;;;;;;;;;5054371;28;20411;-70
2022/07/25 01:32:44;;;;;;;11.57;10.67;;;;;;;;;;5054247;28;20958;-69
2022/07/25 01:35:11;;;;;;;10.83;9.93;;;;;;;;;;5054264;28;20413;-69
2022/07/25 01:37:37;;;;;;;10.43;9.57;;;;;;;;;;5054245;28;20531;-68
2022/07/25 01:40:04;;;;;;;10.27;9.37;;;;;;;;;;5054133;28;20422;-69
2022/07/25 01:42:30;;;;;;;10.40;9.60;;;;;;;;;;5054194;28;20408;-69
2022/07/25 01:44:56;;;;;;;10.83;10.13;;;;;;;;;;5054020;28;20894;-69
2022/07/25 01:47:22;;;;;;;13.53;12.07;;;;;;;;;;5054001;28;20415;-69
2022/07/25 01:49:48;;;;;;;10.53;9.77;;;;;;;;;;5054137;28;20413;-69
2022/07/25 01:52:14;;;;;;;10.83;10.10;;;;;;;;;;5053903;28;20418;-68
2022/07/25 01:54:40;;;;;;;11.83;10.70;;;;;;;;;;5053905;28;20907;-69
2022/07/25 01:57:06;;;;;;;12.13;11.30;;;;;;;;;;5053744;28;20453;-68
2022/07/25 01:59:32;;;;;;;12.33;11.43;;;;;;;;;;5054148;28;20548;-69
2022/07/25 02:01:58;;;;;;;15.70;11.60;;;;;;;;;;5052579;28;20906;-70
2022/07/25 02:04:24;;;;;;;14.47;12.13;;;;;;;;;;5053764;28;20436;-68
2022/07/25 02:06:51;;;;;;;13.87;12.60;;;;;;;;;;5053672;28;20792;-68
2022/07/25 02:09:17;;;;;;;12.73;11.70;;;;;;;;;;5053728;28;20463;-68
2022/07/25 02:11:43;;;;;;;12.67;11.60;;;;;;;;;;5053716;28;20791;-69
2022/07/25 02:14:09;;;;;;;13.17;11.87;;;;;;;;;;5053533;28;20413;-70
2022/07/25 02:16:35;;;;;;;12.93;11.53;;;;;;;;;;5053316;28;20966;-69
2022/07/25 02:19:01;;;;;;;12.70;11.60;;;;;;;;;;5053068;28;20414;-69
2022/07/25 02:21:27;;;;;;;13.03;12.03;;;;;;;;;;5053386;28;20848;-69
2022/07/25 02:23:54;;;;;;;11.67;10.80;;;;;;;;;;5053483;28;20419;-69
2022/07/25 02:26:19;;;;;;;12.60;11.60;;;;;;;;;;5053449;28;20498;-69
2022/07/25 02:28:45;;;;;;;12.97;12.00;;;;;;;;;;5053404;28;20456;-69
2022/07/25 02:31:11;;;;;;;11.20;9.93;;;;;;;;;;5053720;28;20410;-70
2022/07/25 02:33:37;;;;;;;10.90;10.10;;;;;;;;;;5053387;28;20902;-70
2022/07/25 02:36:04;;;;;;;11.50;10.70;;;;;;;;;;5053664;28;20428;-70
2022/07/25 02:38:30;;;;;;;11.13;10.30;;;;;;;;;;5053347;28;20469;-69
2022/07/25 02:40:56;;;;;;;11.40;10.60;;;;;;;;;;5053332;28;20764;-69
2022/07/25 02:43:22;;;;;;;11.67;10.80;;;;;;;;;;5053297;28;20497;-69
2022/07/25 02:45:48;;;;;;;12.23;11.00;;;;;;;;;;5053258;28;20412;-69
2022/07/25 02:48:14;;;;;;;12.70;10.77;;;;;;;;;;5051986;28;20471;-69
2022/07/25 02:50:40;;;;;;;12.30;11.37;;;;;;;;;;5053213;28;20412;-68
2022/07/25 02:53:06;;;;;;;12.03;11.07;;;;;;;;;;5053240;28;20891;-70
2022/07/25 02:55:32;;;;;;;11.67;10.67;;;;;;;;;;5053185;28;20423;-70
2022/07/25 02:57:58;;;;;;;12.67;11.67;;;;;;;;;;5053157;28;20989;-69
2022/07/25 03:00:24;;;;;;;12.70;11.70;;;;;;;;;;5051895;28;20426;-69
2022/07/25 03:02:50;;;;;;;12.93;11.47;;;;;;;;;;5053085;28;20469;-70
2022/07/25 03:05:16;;;;;;;14.67;12.20;;;;;;;;;;5051793;28;20422;-70
2022/07/25 03:07:43;;;;;;;14.47;11.67;;;;;;;;;;5053138;28;20417;-69
2022/07/25 03:10:10;;;;;;;12.10;11.10;;;;;;;;;;5053095;28;20423;-69
2022/07/25 03:12:37;;;;;;;12.53;11.33;;;;;;;;;;5053091;28;20408;-69
2022/07/25 03:15:03;;;;;;;13.00;12.00;;;;;;;;;;5052798;28;20465;-70
2022/07/25 03:17:29;;;;;;;12.53;11.50;;;;;;;;;;5052963;28;20542;-65
2022/07/25 03:19:56;;;;;;;13.00;11.90;;;;;;;;;;5051717;28;20435;-65
2022/07/25 03:22:22;;;;;;;12.27;11.27;;;;;;;;;;5052952;28;20482;-66
2022/07/25 03:24:48;;;;;;;13.30;12.20;;;;;;;;;;5052965;28;20429;-65
2022/07/25 03:27:15;;;;;;;12.27;11.20;;;;;;;;;;5051625;28;20430;-65
2022/07/25 03:29:41;;;;;;;11.30;10.50;;;;;;;;;;5052845;28;20412;-65
2022/07/25 03:32:07;;;;;;;13.07;11.97;;;;;;;;;;5056253;28;20468;-66
2022/07/25 03:34:34;;;;;;;12.93;11.80;;;;;;;;;;5056787;28;20399;-65
2022/07/25 03:37:00;;;;;;;13.20;12.20;;;;;;;;;;5056774;28;20505;-66
2022/07/25 03:39:26;;;;;;;12.77;11.67;;;;;;;;;;5056425;28;20423;-66
2022/07/25 03:41:53;;;;;;;14.53;12.40;;;;;;;;;;5055130;28;20439;-65
2022/07/25 03:44:19;;;;;;;12.10;11.03;;;;;;;;;;5056438;28;20505;-66
2022/07/25 03:46:45;;;;;;;11.50;10.60;;;;;;;;;;5056577;28;20775;-66
2022/07/25 03:49:11;;;;;;;12.10;10.90;;;;;;;;;;5056548;28;20766;-65
2022/07/25 03:51:37;;;;;;;13.83;11.40;;;;;;;;;;5056374;28;20415;-65
2022/07/25 03:54:04;;;;;;;12.47;11.53;;;;;;;;;;5056097;28;20961;-65
2022/07/25 03:56:35;;;;;;;13.07;11.97;;;;;;;;;;5056426;28;20426;-65
2022/07/25 03:59:01;;;;;;;12.63;11.43;;;;;;;;;;5056054;28;20422;-65
2022/07/25 04:01:27;;;;;;;13.33;12.00;;;;;;;;;;5054802;28;20416;-65
2022/07/25 04:03:53;;;;;;;12.97;11.77;;;;;;;;;;5055977;28;20890;-65
2022/07/25 04:06:19;;;;;;;15.53;14.23;;;;;;;;;;5055973;28;20774;-65
2022/07/25 04:08:45;;;;;;;12.90;11.70;;;;;;;;;;5055776;28;20418;-65
2022/07/25 04:11:11;;;;;;;13.00;12.07;;;;;;;;;;5055826;28;20422;-65
2022/07/25 04:13:37;;;;;;;13.70;12.50;;;;;;;;;;5054561;28;20833;-65
2022/07/25 04:16:03;;;;;;;13.80;12.47;;;;;;;;;;5055676;28;20489;-66
2022/07/25 04:18:29;;;;;;;11.30;10.53;;;;;;;;;;5055699;28;20474;-65
2022/07/25 04:20:55;;;;;;;12.83;11.70;;;;;;;;;;5055671;28;20404;-67
2022/07/25 04:23:21;;;;;;;12.87;11.77;;;;;;;;;;5055635;28;20410;-67
2022/07/25 04:25:47;;;;;;;15.87;13.80;;;;;;;;;;5055577;28;20973;-66
2022/07/25 04:28:13;;;;;;;11.60;10.87;;;;;;;;;;5055576;28;20702;-67
2022/07/25 04:30:39;;;;;;;13.60;12.07;;;;;;;;;;5054246;28;20430;-67
2022/07/25 04:33:05;;;;;;;41.73;16.90;;;;;;;;;;5055481;28;21002;-66
2022/07/25 04:35:31;;;;;;;11.87;10.97;;;;;;;;;;5055442;28;20750;-66
2022/07/25 04:37:57;;;;;;;11.20;10.30;;;;;;;;;;5055303;28;20472;-67
2022/07/25 04:40:23;;;;;;;12.63;11.70;;;;;;;;;;5055213;28;20416;-67
2022/07/25 04:42:48;;;;;;;11.70;10.90;;;;;;;;;;5054712;28;20407;-66
2022/07/25 04:45:14;;;;;;;12.27;11.10;;;;;;;;;;5055216;28;20421;-66
2022/07/25 04:47:40;;;;;;;13.13;12.23;;;;;;;;;;5055289;28;20415;-67
2022/07/25 04:50:07;;;;;;;13.10;12.00;;;;;;;;;;5048381;28;20851;-66
2022/07/25 04:52:33;;;;;;;12.50;11.40;;;;;;;;;;5050337;28;20419;-66
2022/07/25 04:54:59;;;;;;;12.67;11.47;;;;;;;;;;5052090;28;20420;-66
2022/07/25 04:57:25;;;;;;;13.67;12.33;;;;;;;;;;5052782;28;20490;-67
2022/07/25 04:59:51;;;;;;;11.53;10.80;;;;;;;;;;5053637;28;20419;-66
2022/07/25 05:02:17;;;;;;;12.10;11.10;;;;;;;;;;5053629;28;20424;-67
2022/07/25 05:04:42;;;;;;;11.97;10.97;;;;;;;;;;5054834;28;20891;-68
2022/07/25 05:07:08;;;;;;;12.27;11.40;;;;;;;;;;5054799;28;20513;-67
2022/07/25 05:09:34;;;;;;;11.77;10.83;;;;;;;;;;5054758;28;20420;-67
2022/07/25 05:12:00;;;;;;;11.63;10.63;;;;;;;;;;5054745;28;20446;-67
2022/07/25 05:14:26;;;;;;;13.70;11.10;;;;;;;;;;5054546;28;20512;-67
2022/07/25 05:16:52;;;;;;;13.20;12.07;;;;;;;;;;5054530;28;20463;-66
2022/07/25 05:19:18;;;;;;;11.87;10.97;;;;;;;;;;5054715;28;20913;-69
2022/07/25 05:21:44;;;;;;;13.07;12.07;;;;;;;;;;5054814;28;20420;-68
2022/07/25 05:24:10;;;;;;;13.43;10.10;;;;;;;;;;5054465;28;20579;-68
2022/07/25 05:26:36;;;;;;;11.40;10.53;;;;;;;;;;5053093;28;20435;-67
2022/07/25 05:29:02;;;;;;;12.33;11.03;;;;;;;;;;5054350;28;20505;-67
2022/07/25 05:31:28;;;;;;;11.73;10.80;;;;;;;;;;5054388;28;20747;-69
2022/07/25 05:33:54;;;;;;;11.90;10.80;;;;;;;;;;5052980;28;20471;-72
2022/07/25 05:36:20;;;;;;;12.23;11.23;;;;;;;;;;5054155;28;20767;-71
2022/07/25 05:38:46;;;;;;;12.07;11.07;;;;;;;;;;5054073;28;20604;-69
2022/07/25 05:41:12;;;;;;;13.27;11.90;;;;;;;;;;5054086;28;20472;-69
2022/07/25 05:43:38;;;;;;;12.60;11.47;;;;;;;;;;5054112;28;20417;-71
2022/07/25 05:46:05;;;;;;;11.83;11.10;;;;;;;;;;5054114;28;20510;-68
2022/07/25 05:48:31;;;;;;;15.93;12.00;;;;;;;;;;5054067;28;20881;-68
2022/07/25 05:50:58;;;;;;;12.77;11.67;;;;;;;;;;5053941;28;20407;-68
2022/07/25 05:53:24;;;;;;;13.13;11.93;;;;;;;;;;5053751;28;20407;-67
2022/07/25 05:55:50;;;;;;;13.43;11.57;;;;;;;;;;5053200;28;20474;-68
2022/07/25 05:58:16;;;;;;;12.50;11.37;;;;;;;;;;5053741;28;20477;-67
2022/07/25 06:00:43;;;;;;;13.30;12.30;;;;;;;;;;5053773;28;20521;-71
2022/07/25 06:03:09;;;;;;;13.10;11.80;;;;;;;;;;5053964;28;20405;-71
2022/07/25 06:05:35;;;;;;;13.10;11.70;;;;;;;;;;5053768;28;20459;-69
2022/07/25 06:08:00;;;;;;;13.40;12.10;;;;;;;;;;5053778;28;20914;-69
2022/07/25 06:10:26;;;;;;;15.20;11.30;;;;;;;;;;5053833;28;20499;-66
2022/07/25 06:12:52;;;;;;;12.00;10.90;;;;;;;;;;5053596;28;20404;-71
2022/07/25 06:15:19;;;;;;;14.83;11.77;;;;;;;;;;5053355;28;20498;-69
2022/07/25 06:17:45;;;;;;;11.30;10.60;;;;;;;;;;5053450;28;20480;-66
2022/07/25 06:20:11;;;;;;;12.70;11.60;;;;;;;;;;5053545;28;20408;-69
2022/07/25 06:22:39;;;;;;;12.23;11.10;;;;;;;;;;5053559;28;20441;-66
2022/07/25 06:25:05;;;;;;;18.20;16.50;;;;;;;;;;5053321;28;20413;-69
2022/07/25 06:27:31;;;;;;;12.50;11.30;;;;;;;;;;5052158;28;20840;-65
2022/07/25 06:29:57;;;;;;;11.83;11.03;;;;;;;;;;5053542;28;20480;-68
2022/07/25 06:32:23;;;;;;;12.33;11.10;;;;;;;;;;5053359;28;20411;-66
2022/07/25 06:34:49;;;;;;;11.50;10.67;;;;;;;;;;5053467;28;20485;-65
2022/07/25 06:37:15;;;;;;;10.93;10.30;;;;;;;;;;5052050;28;20482;-65
2022/07/25 06:39:41;;;;;;;11.20;10.40;;;;;;;;;;5053374;28;20506;-66
2022/07/25 06:42:07;;;;;;;11.70;10.90;;;;;;;;;;5053431;28;20407;-67
2022/07/25 06:44:34;;;;;;;12.83;11.50;;;;;;;;;;5053306;28;20894;-69
2022/07/25 06:47:00;;;;;;;17.30;11.37;;;;;;;;;;5053231;28;20426;-68
2022/07/25 06:49:26;;;;;;;11.23;10.03;;;;;;;;;;5053257;28;20774;-68
2022/07/25 06:51:53;;;;;;;11.30;10.43;;;;;;;;;;5053075;28;20752;-69
2022/07/25 06:54:19;;;;;;;13.50;10.80;;;;;;;;;;5053213;28;20511;-67
2022/07/25 06:56:45;;;;;;;12.20;11.10;;;;;;;;;;5053070;28;20900;-67
2022/07/25 06:59:11;;;;;;;11.57;10.53;;;;;;;;;;5053410;28;20417;-69
2022/07/25 07:01:37;;;;;;;10.67;10.00;;;;;;;;;;5053098;28;20477;-69
2022/07/25 07:04:03;;;;;;;10.40;9.60;;;;;;;;;;5053060;28;20944;-66
2022/07/25 07:06:30;;;;;;;10.30;9.60;;;;;;;;;;5055401;28;20426;-69
2022/07/25 07:08:56;;;;;;;10.80;10.00;;;;;;;;;;5057093;28;20410;-65
2022/07/25 07:11:22;;;;;;;12.97;9.93;;;;;;;;;;5057141;28;20410;-72
2022/07/25 07:13:48;;;;;;;10.27;9.67;;;;;;;;;;5056978;28;20881;-67
2022/07/25 07:16:14;;;;;;;10.30;8.93;;;;;;;;;;5056797;28;20473;-67
2022/07/25 07:18:40;;;;;;;9.50;8.90;;;;;;;;;;5056786;28;20972;-66
2022/07/25 07:21:06;;;;;;;10.03;9.23;;;;;;;;;;5056833;28;20490;-69
2022/07/25 07:23:32;;;;;;;10.13;9.40;;;;;;;;;;5056847;28;20446;-69
2022/07/25 07:25:58;;;;;;;10.03;9.30;;;;;;;;;;5056619;28;20427;-67
2022/07/25 07:28:24;;;;;;;10.70;9.90;;;;;;;;;;5056673;28;20407;-69
2022/07/25 07:30:50;;;;;;;11.10;10.03;;;;;;;;;;5056985;28;20395;-66
2022/07/25 07:33:16;;;;;;;9.50;8.83;;;;;;;;;;5056562;28;20484;-67
2022/07/25 07:35:45;;;;;;;9.30;8.83;;;;;;;;;;5057262;28;20406;-73
2022/07/25 07:38:11;;;;;;;9.50;8.87;;;;;;;;;;5056666;28;20475;-73
2022/07/25 07:40:37;;;;;;;9.13;8.63;;;;;;;;;;5056474;28;20407;-74
2022/07/25 07:43:03;;;;;;;9.20;8.70;;;;;;;;;;5056438;28;20434;-72
2022/07/25 07:45:30;;;;;;;9.17;8.47;;;;;;;;;;5056679;28;20435;-71
2022/07/25 07:47:56;;;;;;;9.83;8.20;;;;;;;;;;5056249;28;20403;-69
2022/07/25 07:50:23;;;;;;;9.50;8.87;;;;;;;;;;5056319;28;20486;-74
2022/07/25 07:52:50;;;;;;;8.70;8.13;;;;;;;;;;5055051;28;20852;-72
2022/07/25 07:58:01;;;;;;;8.33;7.70;;;;;;;;;;5052354;28;20980;-70
2022/07/25 08:00:29;;;;;;;8.73;7.93;;;;;;;;;;5053518;28;20423;-73
2022/07/25 08:02:55;;;;;;;7.50;6.90;;;;;;;;;;5055502;28;20431;-73
2022/07/25 08:05:22;;;;;;;7.00;6.50;;;;;;;;;;5055985;28;20399;-74
2022/07/25 08:07:50;;;;;;;7.37;6.83;;;;;;;;;;5052626;28;20435;-66
2022/07/25 08:10:17;;;;;;;7.23;6.80;;;;;;;;;;5055659;28;20411;-74
2022/07/25 08:12:43;;;;;;;7.20;6.70;;;;;;;;;;5055931;28;20420;-73
2022/07/25 08:15:09;;;;;;;7.37;6.70;;;;;;;;;;5055570;28;20853;-69
2022/07/25 08:17:35;;;;;;;6.70;6.30;;;;;;;;;;5053362;28;20845;-63
2022/07/25 08:20:06;;;;;;;7.80;7.20;;;;;;;;;;5055843;28;20433;-64
2022/07/25 08:22:38;;;;;;;7.20;6.90;;;;;;;;;;5055992;28;20449;-71
2022/07/25 08:25:05;;;;;;;7.70;6.60;;;;;;;;;;5055457;28;20969;-71
2022/07/25 08:27:31;;;;;;;6.67;6.27;;;;;;;;;;5055659;28;20418;-73
2022/07/25 08:29:59;;;;;;;5.93;5.73;;;;;;;;;;5055531;28;20421;-70
2022/07/25 08:32:25;;;;;;;6.77;6.40;;;;;;;;;;5055366;28;20891;-70
2022/07/25 08:34:52;;;;;;;6.47;6.17;;;;;;;;;;5055322;28;20414;-72
2022/07/25 08:37:18;;;;;;;9.23;6.43;;;;;;;;;;5055311;28;20465;-73
2022/07/25 08:39:44;;;;;;;6.40;6.17;;;;;;;;;;5055246;28;20447;-70
2022/07/25 08:42:10;;;;;;;6.40;6.20;;;;;;;;;;5055297;28;20777;-73
2022/07/25 08:44:37;;;;;;;6.60;6.23;;;;;;;;;;5055249;28;20411;-74
2022/07/25 08:47:03;;;;;;;7.57;6.70;;;;;;;;;;5055207;28;20469;-64
2022/07/25 08:49:29;;;;;;;7.97;7.00;;;;;;;;;;5053819;28;20857;-62
2022/07/25 08:51:56;;;;;;;6.60;6.40;;;;;;;;;;5054994;28;20411;-63
2022/07/25 08:54:23;;;;;;;7.03;6.63;;;;;;;;;;5055122;28;20181;-63
2022/07/25 08:56:49;;;;;;;7.17;6.70;;;;;;;;;;5054828;28;20426;-64
2022/07/25 08:59:15;;;;;;;6.63;6.33;;;;;;;;;;5055258;28;20416;-64
2022/07/25 09:01:41;;;;;;;6.77;6.37;;;;;;;;;;5054931;28;20882;-67
2022/07/25 09:04:08;;;;;;;6.93;6.63;;;;;;;;;;5054828;28;20415;-64
2022/07/25 09:06:34;;;;;;;6.80;6.60;;;;;;;;;;5054759;28;20169;-64
2022/07/25 09:09:03;;;;;;;6.57;6.27;;;;;;;;;;5053488;28;20419;-66
2022/07/25 09:11:33;;;;;;;9.13;8.43;;;;;;;;;;5054752;28;20407;-65
2022/07/25 09:14:02;;;;;;;9.20;8.40;;;;;;;;;;5054756;28;20403;-67
2022/07/25 09:16:29;;;;;;;7.00;6.40;;;;;;;;;;5054463;28;20557;-65
2022/07/25 09:19:05;;;;;;;6.80;6.50;;;;;;;;;;5053302;28;20470;-64
2022/07/25 09:21:31;;;;;;;6.40;6.20;;;;;;;;;;5054677;28;20403;-66
2022/07/25 09:24:07;;;;;;;7.53;6.80;;;;;;;;;;5054489;28;20415;-65
2022/07/25 09:26:42;;;;;;;6.37;6.17;;;;;;;;;;5054743;28;20180;-66
2022/07/25 09:29:08;;;;;;;10.23;6.60;;;;;;;;;;5053008;28;20513;-64
2022/07/25 09:31:34;;;;;;;8.80;6.57;;;;;;;;;;5054592;28;20411;-67
2022/07/25 09:34:05;;;;;;;7.50;7.00;;;;;;;;;;5054292;28;20414;-66
2022/07/25 09:36:34;;;;;;;6.73;6.33;;;;;;;;;;5054102;28;20952;-65
2022/07/25 09:39:01;;;;;;;7.00;6.50;;;;;;;;;;5053927;28;20467;-64
2022/07/25 09:41:37;;;;;;;6.33;5.97;;;;;;;;;;5054370;28;20836;-66
2022/07/25 09:44:03;;;;;;;7.00;6.40;;;;;;;;;;5054190;28;20395;-71
2022/07/25 09:46:30;;;;;;;6.07;5.57;;;;;;;;;;5054046;28;20498;-63
2022/07/25 09:48:57;;;;;;;6.43;6.07;;;;;;;;;;5054016;28;20395;-66
2022/07/25 09:51:25;;;;;;;5.87;5.63;;;;;;;;;;5053959;28;20764;-65
2022/07/25 09:53:51;;;;;;;6.43;5.93;;;;;;;;;;5053992;28;20864;-63
2022/07/25 09:56:17;;;;;;;7.07;6.40;;;;;;;;;;5053837;28;20407;-67
2022/07/25 09:58:43;;;;;;;6.13;5.83;;;;;;;;;;5053822;28;20469;-64
2022/07/25 10:01:09;;;;;;;6.23;5.93;;;;;;;;;;5054037;28;20414;-65
2022/07/25 10:03:46;;;;;;;19.10;6.73;;;;;;;;;;5053752;28;20772;-66
2022/07/25 10:06:27;;;;;;;6.20;5.90;;;;;;;;;;5053709;28;20410;-64
2022/07/25 10:08:54;;;;;;;6.17;5.87;;;;;;;;;;5053607;28;20944;-63
2022/07/25 10:11:26;;;;;;;5.80;5.50;;;;;;;;;;5053533;28;20407;-69
2022/07/25 10:13:53;;;;;;;6.57;6.27;;;;;;;;;;5052285;28;20976;-63
2022/07/25 10:16:20;;;;;;;6.23;5.93;;;;;;;;;;5053383;28;20466;-64
2022/07/25 10:18:54;;;;;;;6.30;6.00;;;;;;;;;;5053754;28;20506;-65
2022/07/25 10:21:20;;;;;;;6.30;5.90;;;;;;;;;;5053629;28;20410;-67
2022/07/25 10:23:57;;;;;;;6.20;5.90;;;;;;;;;;5053386;28;20411;-69
2022/07/25 10:26:24;;;;;;;5.37;5.17;;;;;;;;;;5050452;28;20454;-65
2022/07/25 10:28:51;;;;;;;6.10;5.90;;;;;;;;;;5049913;28;20427;-64
2022/07/25 10:31:20;;;;;;;6.47;5.87;;;;;;;;;;5048832;28;20423;-65
2022/07/25 10:33:53;;;;;;;6.07;5.80;;;;;;;;;;5050984;28;20419;-65
2022/07/25 10:36:20;;;;;;;5.93;5.63;;;;;;;;;;5049342;28;20517;-64
2022/07/25 10:38:46;;;;;;;6.20;6.00;;;;;;;;;;5050495;28;20467;-66
2022/07/25 10:41:15;;;;;;;5.20;4.80;;;;;;;;;;5049702;28;20811;-65
2022/07/25 10:43:43;;;;;;;6.47;5.97;;;;;;;;;;5050465;28;20419;-65
2022/07/25 10:46:13;;;;;;;5.60;5.30;;;;;;;;;;5050388;28;20486;-65
2022/07/25 10:48:39;;;;;;;6.47;6.17;;;;;;;;;;5048615;28;20496;-65
2022/07/25 10:51:06;;;;;;;6.20;5.90;;;;;;;;;;5050463;28;20422;-68
2022/07/25 10:53:32;;;;;;;6.00;5.63;;;;;;;;;;5050890;28;20863;-64
2022/07/25 10:56:18;;;;;;;6.27;5.83;;;;;;;;;;5050284;28;20469;-65
2022/07/25 10:58:44;;;;;;;5.97;5.50;;;;;;;;;;5049484;28;21059;-65
2022/07/25 11:01:12;;;;;;;8.77;6.07;;;;;;;;;;5050409;28;20530;-65
2022/07/25 11:03:39;;;;;;;5.43;5.10;;;;;;;;;;5050525;28;20434;-65
2022/07/25 11:06:05;;;;;;;8.47;5.50;;;;;;;;;;5050282;28;20415;-65
2022/07/25 11:08:34;;;;;;;5.93;5.30;;;;;;;;;;5050470;28;20929;-67
2022/07/25 11:11:00;;;;;;;5.47;5.20;;;;;;;;;;5050310;28;20473;-65
2022/07/25 11:13:27;;;;;;;7.60;5.10;;;;;;;;;;5050293;28;21017;-68
2022/07/25 11:15:56;;;;;;;6.67;5.50;;;;;;;;;;5050052;28;21042;-67
2022/07/25 11:18:33;;;;;;;5.33;5.03;;;;;;;;;;5049806;28;20467;-66
2022/07/25 11:20:59;;;;;;;5.67;5.40;;;;;;;;;;5049992;28;20407;-67
2022/07/25 11:23:25;;;;;;;6.13;5.50;;;;;;;;;;5049857;28;20423;-65
2022/07/25 11:25:51;;;;;;;5.40;5.20;;;;;;;;;;5049851;28;20470;-67
2022/07/25 11:28:17;;;;;;;6.30;4.73;;;;;;;;;;5050334;28;20199;-70
2022/07/25 11:30:43;;;;;;;6.20;5.23;;;;;;;;;;5050058;28;20551;-70
2022/07/25 11:33:14;;;;;;;5.20;4.93;;;;;;;;;;5050135;28;20195;-67
2022/07/25 11:35:40;;;;;;;5.40;5.00;;;;;;;;;;5050463;28;20415;-71
2022/07/25 11:38:06;;;;;;;5.07;4.77;;;;;;;;;;5049885;28;20506;-73
2022/07/25 11:40:33;;;;;;;4.93;4.63;;;;;;;;;;5050194;28;20462;-72
2022/07/25 11:42:59;;;;;;;5.43;4.47;;;;;;;;;;5050033;28;20899;-66
2022/07/25 11:45:29;;;;;;;5.10;4.33;;;;;;;;;;5050182;28;20442;-71
2022/07/25 11:48:05;;;;;;;4.73;4.53;;;;;;;;;;5050062;28;20426;-72
2022/07/25 11:50:32;;;;;;;5.20;4.80;;;;;;;;;;5051159;28;20834;-71
2022/07/25 11:53:00;;;;;;;6.23;4.80;;;;;;;;;;5053851;28;20414;-72
2022/07/25 11:55:28;;;;;;;4.40;4.30;;;;;;;;;;5056115;28;20422;-68
2022/07/25 11:57:57;;;;;;;4.70;4.40;;;;;;;;;;5056094;28;20913;-69
2022/07/25 12:00:23;;;;;;;4.40;4.20;;;;;;;;;;5056118;28;20889;-67
2022/07/25 12:02:49;;;;;;;4.60;4.40;;;;;;;;;;5056140;28;20507;-71
2022/07/25 12:05:17;;;;;;;4.90;4.57;;;;;;;;;;5055908;28;20169;-70
2022/07/25 12:07:44;;;;;;;5.97;4.00;;;;;;;;;;5055990;28;20502;-71
2022/07/25 12:10:15;;;;;;;4.07;3.97;;;;;;;;;;5054642;28;20502;-68
2022/07/25 12:12:47;;;;;;;4.90;4.60;;;;;;;;;;5054605;28;20765;-68
2022/07/25 12:15:13;;;;;;;4.43;4.27;;;;;;;;;;5055831;28;20520;-68
2022/07/25 12:17:40;;;;;;;5.30;4.90;;;;;;;;;;5055985;28;20470;-68
2022/07/25 12:20:10;;;;;;;4.43;4.30;;;;;;;;;;5055742;28;20415;-73
2022/07/25 12:22:36;;;;;;;4.47;4.47;;;;;;;;;;5055668;28;20851;-71
2022/07/25 12:25:02;;;;;;;5.00;4.80;;;;;;;;;;5055625;28;20952;-71
2022/07/25 12:27:28;;;;;;;5.07;4.77;;;;;;;;;;5055450;28;20410;-70
2022/07/25 12:29:54;;;;;;;5.33;4.67;;;;;;;;;;5055486;28;20412;-70
2022/07/25 12:32:20;;;;;;;5.17;4.87;;;;;;;;;;5055583;28;20403;-72
2022/07/25 12:34:46;;;;;;;4.40;4.40;;;;;;;;;;5055572;28;20230;-75
2022/07/25 12:37:12;;;;;;;4.63;4.43;;;;;;;;;;5055443;28;20204;-70
2022/07/25 12:39:38;;;;;;;5.40;5.00;;;;;;;;;;5054069;28;20631;-71
2022/07/25 12:42:04;;;;;;;5.17;4.80;;;;;;;;;;5055374;28;20176;-70
2022/07/25 12:44:30;;;;;;;5.27;5.07;;;;;;;;;;5055543;28;20540;-68
2022/07/25 12:46:56;;;;;;;5.90;5.50;;;;;;;;;;5055166;28;20410;-68
2022/07/25 12:49:22;;;;;;;5.10;4.90;;;;;;;;;;5055109;28;20415;-72
2022/07/25 12:51:48;;;;;;;5.67;5.40;;;;;;;;;;5055478;28;20165;-70
2022/07/25 12:54:14;;;;;;;5.20;5.10;;;;;;;;;;5055058;28;20407;-72
2022/07/25 12:56:40;;;;;;;5.87;5.50;;;;;;;;;;5055007;28;20407;-71
2022/07/25 12:59:06;;;;;;;6.07;5.60;;;;;;;;;;5054968;28;20800;-70
2022/07/25 13:01:32;;;;;;;5.43;5.13;;;;;;;;;;5055121;28;20391;-69
2022/07/25 13:03:58;;;;;;;5.50;5.30;;;;;;;;;;5054510;28;20575;-67
2022/07/25 13:06:24;;;;;;;5.10;5.00;;;;;;;;;;5054929;28;20173;-70
2022/07/25 13:08:50;;;;;;;5.73;4.93;;;;;;;;;;5054917;28;20762;-68
2022/07/25 13:11:16;;;;;;;5.23;5.03;;;;;;;;;;5055019;28;20415;-71
2022/07/25 13:13:42;;;;;;;5.63;5.30;;;;;;;;;;5054787;28;20431;-70
2022/07/25 13:16:08;;;;;;;6.10;5.27;;;;;;;;;;5054588;28;20878;-66
2022/07/25 13:18:34;;;;;;;4.50;4.40;;;;;;;;;;5054628;28;20477;-68
2022/07/25 13:21:02;;;;;;;12.77;5.47;;;;;;;;;;5054757;28;20422;-71
2022/07/25 13:23:28;;;;;;;5.57;5.00;;;;;;;;;;5054635;28;20878;-67
2022/07/25 13:25:54;;;;;;;5.10;4.90;;;;;;;;;;5054425;28;20423;-67
2022/07/25 13:28:20;;;;;;;6.03;5.57;;;;;;;;;;5054464;28;20418;-67
2022/07/25 13:30:46;;;;;;;4.90;4.70;;;;;;;;;;5054341;28;20416;-68
2022/07/25 13:33:12;;;;;;;5.40;5.20;;;;;;;;;;5054352;28;20819;-67
2022/07/25 13:35:38;;;;;;;4.57;4.47;;;;;;;;;;5054341;28;20415;-67
2022/07/25 13:38:04;;;;;;;5.33;4.87;;;;;;;;;;5054201;28;20212;-68
2022/07/25 13:40:31;;;;;;;5.47;5.20;;;;;;;;;;5054245;28;20434;-70
2022/07/25 13:42:57;;;;;;;5.30;5.10;;;;;;;;;;5054349;28;20411;-70
2022/07/25 13:45:23;;;;;;;4.97;4.77;;;;;;;;;;5054395;28;20420;-68
2022/07/25 13:47:49;;;;;;;5.47;5.27;;;;;;;;;;5054335;28;20517;-70
2022/07/25 13:50:15;;;;;;;5.40;5.23;;;;;;;;;;5054358;28;20922;-71
2022/07/25 13:52:41;;;;;;;4.80;4.70;;;;;;;;;;5054091;28;20215;-71
2022/07/25 13:55:07;;;;;;;5.63;4.90;;;;;;;;;;5053929;28;20813;-68
2022/07/25 13:57:33;;;;;;;5.50;5.30;;;;;;;;;;5054117;28;20581;-68
2022/07/25 13:59:59;;;;;;;7.53;5.50;;;;;;;;;;5053818;28;21077;-71
2022/07/25 14:02:25;;;;;;;6.10;5.20;;;;;;;;;;5053883;28;20439;-71
2022/07/25 14:04:51;;;;;;;4.97;4.77;;;;;;;;;;5052561;28;20689;-67
2022/07/25 14:07:17;;;;;;;5.43;5.03;;;;;;;;;;5053901;28;20169;-70
2022/07/25 14:09:43;;;;;;;5.93;5.47;;;;;;;;;;5052291;28;20434;-70
2022/07/25 14:12:09;;;;;;;5.10;5.00;;;;;;;;;;5053703;28;20785;-68
2022/07/25 14:14:35;;;;;;;5.23;5.13;;;;;;;;;;5053202;28;20874;-69
2022/07/25 14:17:01;;;;;;;5.37;5.10;;;;;;;;;;5052983;28;20407;-69
2022/07/25 14:19:27;;;;;;;5.70;5.40;;;;;;;;;;5053558;28;20779;-71
2022/07/25 14:21:53;;;;;;;5.23;5.03;;;;;;;;;;5053517;28;20407;-69
2022/07/25 14:24:19;;;;;;;6.20;5.63;;;;;;;;;;5052144;28;20245;-72
2022/07/25 14:26:45;;;;;;;5.77;5.57;;;;;;;;;;5053483;28;20168;-71
2022/07/25 14:29:12;;;;;;;5.80;5.60;;;;;;;;;;5053427;28;20764;-69